Time;durP1;ratioP1;P1;durP2;ratioP2;P2;SDS_P1;SDS_P2;PMS_P1;PMS_P2;Temp;Humidity;BMP_temperature;BMP_pressure;BME280_temperature;BME280_humidity;BME280_pressure;Samples;Min_cycle;Max_cycle;Signal;HPM_P1;HPM_P2
2022/10/02 00:01:54;;;;;;;45.63;9.73;;;;;;;11.06;100.00;101334.03;5134029;27;20031;-45
2022/10/02 00:04:26;;;;;;;45.78;9.40;;;;;;;11.03;100.00;101336.53;5134864;27;20030;-44
2022/10/02 00:06:59;;;;;;;47.92;8.95;;;;;;;10.87;100.00;101343.72;5134867;27;20106;-47
2022/10/02 00:09:36;;;;;;;42.50;8.23;;;;;;;10.85;100.00;101350.50;5134228;27;20015;-47
2022/10/02 00:12:04;;;;;;;34.65;8.23;;;;;;;10.80;100.00;101348.59;5134707;27;20489;-45
2022/10/02 00:14:34;;;;;;;39.80;7.65;;;;;;;10.69;100.00;101340.44;5134916;27;20043;-46
2022/10/02 00:17:01;;;;;;;41.50;8.18;;;;;;;10.60;100.00;101346.16;5134130;27;20030;-45
2022/10/02 00:19:26;;;;;;;46.75;10.18;;;;;;;10.57;100.00;101345.16;5134903;27;20100;-48
2022/10/02 00:22:11;;;;;;;41.63;9.40;;;;;;;10.57;100.00;101345.16;5134550;27;20019;-45
2022/10/02 00:25:02;;;;;;;48.30;9.80;;;;;;;10.52;100.00;101347.56;5134429;27;20023;-44
2022/10/02 00:27:45;;;;;;;51.58;10.23;;;;;;;10.54;100.00;101353.66;5134806;27;20031;-46
2022/10/02 00:30:15;;;;;;;62.97;11.57;;;;;;;10.55;100.00;101352.84;5133591;27;20408;-47
2022/10/02 00:33:14;;;;;;;48.05;10.30;;;;;;;10.63;100.00;101355.72;5134115;27;20497;-47
2022/10/02 00:35:49;;;;;;;51.28;9.57;;;;;;;10.64;100.00;101360.00;5134200;27;20042;-45
2022/10/02 00:38:42;;;;;;;63.67;11.50;;;;;;;10.65;100.00;101343.72;5132769;27;20072;-46
2022/10/02 00:41:38;;;;;;;54.90;11.27;;;;;;;10.69;100.00;101358.50;5134758;27;20063;-45
2022/10/02 00:44:19;;;;;;;56.83;10.52;;;;;;;10.71;100.00;101359.44;5133379;27;20061;-45
2022/10/02 00:47:06;;;;;;;53.80;11.05;;;;;;;10.72;100.00;101350.88;5134275;27;20031;-49
2022/10/02 00:49:36;;;;;;;59.97;10.23;;;;;;;10.76;100.00;101350.16;5134082;27;20030;-47
2022/10/02 00:52:19;;;;;;;48.78;9.75;;;;;;;10.78;100.00;101361.44;5133191;27;20027;-46
2022/10/02 00:54:57;;;;;;;57.80;10.43;;;;;;;10.82;100.00;101357.25;5134067;27;20070;-47
2022/10/02 00:57:34;;;;;;;44.83;9.85;;;;;;;10.81;100.00;101351.22;5133393;27;20030;-45
2022/10/02 01:00:10;;;;;;;43.50;9.30;;;;;;;10.82;100.00;101357.25;5134225;27;20066;-45
2022/10/02 01:02:35;;;;;;;60.83;10.93;;;;;;;10.85;100.00;101342.78;5133702;27;20471;-46
2022/10/02 01:05:07;;;;;;;62.70;10.33;;;;;;;10.93;100.00;101347.34;5133352;27;20027;-47
2022/10/02 01:07:36;;;;;;;47.17;9.20;;;;;;;10.84;100.00;101350.44;5134061;27;20277;-46
2022/10/02 01:10:02;;;;;;;52.63;9.50;;;;;;;10.94;100.00;101346.53;5134016;27;20378;-43
2022/10/02 01:12:27;;;;;;;67.00;11.48;;;;;;;11.01;100.00;101349.38;5133085;27;20107;-43
2022/10/02 01:14:53;;;;;;;53.67;10.18;;;;;;;11.04;100.00;101346.91;5133677;28;20405;-42
2022/10/02 01:17:29;;;;;;;52.33;10.27;;;;;;;11.07;100.00;101346.13;5133858;28;20027;-46
2022/10/02 01:19:56;;;;;;;56.50;10.18;;;;;;;11.16;100.00;101343.00;5132804;28;20114;-46
2022/10/02 01:22:36;;;;;;;60.15;10.00;;;;;;;11.19;100.00;101341.41;5133979;28;20106;-45
2022/10/02 01:25:04;;;;;;;55.70;10.40;;;;;;;11.23;100.00;101338.94;5133845;28;20027;-43
2022/10/02 01:27:31;;;;;;;62.65;10.00;;;;;;;11.19;100.00;101337.94;5132897;28;20023;-45
2022/10/02 01:30:16;;;;;;;62.97;9.38;;;;;;;11.25;100.00;101337.28;5134021;28;20056;-42
2022/10/02 01:32:59;;;;;;;58.45;9.50;;;;;;;11.29;100.00;101344.31;5132819;28;20031;-44
2022/10/02 01:35:30;;;;;;;63.58;10.40;;;;;;;11.31;100.00;101343.53;5133794;28;20099;-45
2022/10/02 01:37:56;;;;;;;64.07;10.40;;;;;;;11.39;100.00;101341.22;5133679;28;20030;-43
2022/10/02 01:40:42;;;;;;;53.47;10.10;;;;;;;11.41;100.00;101355.03;5132773;28;20189;-46
2022/10/02 01:43:25;;;;;;;59.72;9.90;;;;;;;11.44;100.00;101350.00;5133269;28;20478;-45
2022/10/02 01:45:57;;;;;;;58.30;9.93;;;;;;;11.44;100.00;101339.66;5133426;28;20027;-43
2022/10/02 01:48:41;;;;;;;56.47;9.98;;;;;;;11.44;100.00;101350.00;5132743;27;20027;-45
2022/10/02 01:51:19;;;;;;;55.20;9.63;;;;;;;11.47;100.00;101350.09;5137799;27;20060;-43
2022/10/02 01:53:56;;;;;;;60.75;10.45;;;;;;;11.50;100.00;101349.31;5136482;27;20129;-45
2022/10/02 01:56:42;;;;;;;64.78;9.77;;;;;;;11.54;100.00;101346.00;5137570;27;20027;-42
2022/10/02 01:59:26;;;;;;;57.15;10.00;;;;;;;11.53;100.00;101350.31;5137969;27;20023;-44
2022/10/02 02:02:11;;;;;;;54.53;9.23;;;;;;;11.56;100.00;101354.69;5136501;27;20080;-43
2022/10/02 02:04:49;;;;;;;57.63;9.73;;;;;;;11.57;100.00;101353.88;5137239;27;20023;-45
2022/10/02 02:07:27;;;;;;;50.00;9.93;;;;;;;11.65;100.00;101359.28;5137385;27;20055;-45
2022/10/02 02:10:23;;;;;;;64.63;10.57;;;;;;;11.67;100.00;101357.63;5136452;27;20108;-42
2022/10/02 02:13:10;;;;;;;60.58;10.60;;;;;;;11.67;100.00;101349.88;5136893;27;20434;-47
2022/10/02 02:15:41;;;;;;;63.05;9.90;;;;;;;11.69;100.00;101355.97;5136028;27;20475;-44
2022/10/02 02:18:17;;;;;;;61.63;9.98;;;;;;;11.72;100.00;101355.19;5137353;27;20024;-43
2022/10/02 02:20:47;;;;;;;58.88;9.65;;;;;;;11.77;100.00;101351.94;5136815;27;20459;-44
2022/10/02 02:23:21;;;;;;;55.45;9.88;;;;;;;11.78;100.00;101356.28;5136640;27;20023;-45
2022/10/02 02:25:50;;;;;;;61.60;9.60;;;;;;;11.81;100.00;101351.22;5136880;27;20060;-46
2022/10/02 02:28:20;;;;;;;64.63;10.90;;;;;;;11.84;100.00;101358.19;5137071;27;20106;-45
2022/10/02 02:30:50;;;;;;;62.05;10.07;;;;;;;11.85;100.00;101363.41;5135792;27;20474;-46
2022/10/02 02:33:37;;;;;;;73.93;10.38;;;;;;;11.86;100.00;101360.00;5136793;27;20100;-43
2022/10/02 02:36:08;;;;;;;67.78;11.00;;;;;;;11.90;100.00;101349.75;5135969;27;20046;-43
2022/10/02 02:38:43;;;;;;;56.03;9.75;;;;;;;11.85;100.00;101353.06;5136666;27;20027;-46
2022/10/02 02:41:14;;;;;;;59.85;9.98;;;;;;;11.86;100.00;101357.41;5136655;27;20486;-45
2022/10/02 02:43:48;;;;;;;54.92;9.40;;;;;;;11.87;100.00;101353.13;5135480;27;20080;-43
2022/10/02 02:46:24;;;;;;;60.22;10.23;;;;;;;11.88;100.00;101346.25;5136781;27;20062;-43
2022/10/02 02:48:55;;;;;;;59.55;10.43;;;;;;;11.89;100.00;101360.91;5136268;27;20027;-44
2022/10/02 02:51:27;;;;;;;54.85;10.10;;;;;;;11.89;100.00;101364.38;5135859;27;20030;-44
2022/10/02 02:54:00;;;;;;;49.33;9.60;;;;;;;11.86;100.00;101361.69;5136251;27;20031;-46
2022/10/02 02:56:28;;;;;;;50.00;9.52;;;;;;;11.89;100.00;101366.06;5136538;27;20026;-47
2022/10/02 02:58:57;;;;;;;;;;;;;;;11.91;100.00;101367.88;5135658;27;20363;-44
2022/10/02 03:01:22;;;;;;;55.15;10.55;;;;;;;11.87;100.00;101371.19;5135087;27;19919;-42
2022/10/02 03:03:47;;;;;;;56.13;9.75;;;;;;;11.86;100.00;101367.75;5135316;27;20193;-42
2022/10/02 03:06:17;;;;;;;50.85;9.52;;;;;;;11.88;100.00;101366.91;5136156;27;20055;-48
2022/10/02 03:08:45;;;;;;;52.33;8.95;;;;;;;11.89;100.00;101368.66;5135788;27;20386;-42
2022/10/02 03:11:18;;;;;;;;;;;;;;;11.91;100.00;101367.03;5135894;27;20027;-44
2022/10/02 03:13:59;;;;;;;45.03;8.82;;;;;;;11.85;100.00;101368.56;5135784;27;19919;-43
2022/10/02 03:16:35;;;;;;;34.28;7.93;;;;;;;11.83;100.00;101359.03;5136203;27;20027;-48
2022/10/02 03:19:25;;;;;;;32.60;7.85;;;;;;;11.80;100.00;101364.06;5135536;27;20072;-45
2022/10/02 03:21:50;;;;;;;32.22;7.55;;;;;;;11.76;100.00;101359.63;5135708;27;20039;-44
2022/10/02 03:24:32;;;;;;;31.43;7.40;;;;;;;11.74;100.00;101367.34;5135750;27;20039;-45
2022/10/02 03:26:57;;;;;;;27.52;6.80;;;;;;;11.73;100.00;101365.56;5134934;27;20628;-47
2022/10/02 03:29:29;;;;;;;29.40;7.87;;;;;;;11.73;100.00;101369.88;5135868;27;20019;-44
2022/10/02 03:31:55;;;;;;;26.73;7.05;;;;;;;11.73;100.00;101368.16;5135060;27;20279;-46
2022/10/02 03:34:22;;;;;;;29.75;7.53;;;;;;;11.75;100.00;101375.94;5135419;27;20100;-45
2022/10/02 03:36:48;;;;;;;24.88;6.15;;;;;;;11.72;100.00;101376.72;5135231;27;20031;-44
2022/10/02 03:39:13;;;;;;;37.03;7.95;;;;;;;11.72;100.00;101381.88;5134899;27;20030;-44
2022/10/02 03:41:39;;;;;;;26.58;7.50;;;;;;;11.71;100.00;101390.50;5135432;27;20034;-45
2022/10/02 03:44:04;;;;;;;35.63;7.57;;;;;;;11.69;100.00;101384.38;5135385;27;20046;-45
2022/10/02 03:46:29;;;;;;;29.35;7.93;;;;;;;11.69;100.00;101389.53;5134634;27;20431;-44
2022/10/02 03:48:55;;;;;;;28.92;8.80;;;;;;;11.69;100.00;101381.78;5135104;27;20030;-44
2022/10/02 03:51:21;;;;;;;32.97;9.80;;;;;;;11.68;100.00;101380.94;5135229;27;20026;-45
2022/10/02 03:53:46;;;;;;;35.35;10.18;;;;;;;11.70;100.00;101383.56;5134242;27;20375;-45
2022/10/02 03:56:21;;;;;;;38.30;11.40;;;;;;;11.67;100.00;101373.09;5135267;27;20482;-47
2022/10/02 03:58:50;;;;;;;37.65;10.50;;;;;;;11.63;100.00;101381.59;5134834;27;20485;-45
2022/10/02 04:01:31;;;;;;;26.85;8.50;;;;;;;11.61;100.00;101380.69;5134271;27;20069;-45
2022/10/02 04:04:05;;;;;;;27.83;8.13;;;;;;;11.58;100.00;101389.19;5135074;27;20114;-44
2022/10/02 04:06:44;;;;;;;21.98;6.70;;;;;;;11.56;100.00;101390.81;5134930;27;20030;-45
2022/10/02 04:09:15;;;;;;;25.52;6.65;;;;;;;11.53;100.00;101386.44;5134329;27;20031;-44
2022/10/02 04:11:47;;;;;;;27.13;7.57;;;;;;;11.51;100.00;101389.78;5134445;27;20031;-44
2022/10/02 04:14:40;;;;;;;25.45;6.93;;;;;;;11.50;100.00;101380.28;5133970;27;20019;-48
2022/10/02 04:17:18;;;;;;;24.98;6.95;;;;;;;11.47;100.00;101386.22;5124507;27;20031;-50
2022/10/02 04:19:50;;;;;;;25.50;7.40;;;;;;;11.42;100.00;101382.59;5134608;27;20023;-44
2022/10/02 04:22:38;;;;;;;32.13;9.43;;;;;;;11.40;100.00;101381.69;5133917;27;20023;-44
2022/10/02 04:25:09;;;;;;;33.28;11.85;;;;;;;11.40;100.00;101386.84;5134652;27;20030;-44
2022/10/02 04:27:41;;;;;;;29.73;12.10;;;;;;;11.39;100.00;101381.63;5134548;27;20027;-47
2022/10/02 04:30:11;;;;;;;37.33;13.23;;;;;;;11.35;100.00;101380.66;5133915;27;20042;-44
2022/10/02 04:32:36;;;;;;;40.90;15.85;;;;;;;11.31;100.00;101373.59;5134251;27;20031;-44
2022/10/02 04:35:11;;;;;;;39.90;15.73;;;;;;;11.34;100.00;101377.19;5134440;27;20156;-44
2022/10/02 04:37:58;;;;;;;46.50;18.88;;;;;;;11.37;100.00;101373.81;5134100;27;20027;-48
2022/10/02 04:40:32;;;;;;;46.30;18.20;;;;;;;11.36;100.00;101382.38;5134573;27;20031;-45
2022/10/02 04:43:19;;;;;;;42.13;19.20;;;;;;;11.36;100.00;101385.88;5133358;27;20023;-44
2022/10/02 04:46:00;;;;;;;50.05;20.50;;;;;;;11.39;100.00;101392.84;5134258;27;20100;-47
2022/10/02 04:48:31;;;;;;;46.38;19.45;;;;;;;11.41;100.00;101405.78;5134218;27;20489;-46
2022/10/02 04:51:15;;;;;;;48.22;19.20;;;;;;;11.44;100.00;101414.53;5133635;27;20023;-45
2022/10/02 04:53:52;;;;;;;48.50;18.65;;;;;;;11.46;100.00;101415.44;5133876;27;20039;-44
2022/10/02 04:56:25;;;;;;;42.05;18.08;;;;;;;11.48;100.00;101408.63;5134375;27;20067;-44
2022/10/02 04:59:48;;;;;;;55.53;20.00;;;;;;;11.48;100.00;101413.78;5133799;27;20480;-48
2022/10/02 05:02:22;;;;;;;62.03;22.85;;;;;;;11.51;100.00;101413.03;5050728;28;20029;-45
2022/10/02 05:05:23;;;;;;;52.08;23.48;;;;;;;11.54;100.00;101418.28;5049815;28;20029;-44
2022/10/02 05:08:14;;;;;;;63.40;25.52;;;;;;;11.53;100.00;101421.72;5113787;27;20110;-44
2022/10/02 05:11:04;;;;;;;65.72;30.58;;;;;;;11.56;100.00;101421.81;5132928;27;20111;-49
2022/10/02 05:13:51;;;;;;;68.13;28.60;;;;;;;11.61;100.00;101419.41;5133915;27;20038;-43
2022/10/02 05:16:32;;;;;;;72.05;29.77;;;;;;;11.57;100.00;101415.81;5134068;28;20034;-43
2022/10/02 05:19:19;;;;;;;73.82;28.48;;;;;;;11.58;100.00;101416.69;5133274;28;20102;-46
2022/10/02 05:22:10;;;;;;;65.93;30.13;;;;;;;11.59;100.00;101423.63;5133872;28;20027;-44
2022/10/02 05:24:48;;;;;;;74.50;29.92;;;;;;;11.59;100.00;101415.88;5134529;27;20042;-45
2022/10/02 05:27:34;;;;;;;82.43;30.35;;;;;;;11.56;100.00;101426.09;5138007;27;20533;-44
2022/10/02 05:29:59;;;;;;;79.47;30.33;;;;;;;11.52;100.00;101428.56;5138163;27;20026;-44
2022/10/02 05:32:53;;;;;;;77.40;30.30;;;;;;;11.56;100.00;101433.84;5137360;27;20031;-46
2022/10/02 05:35:38;;;;;;;77.10;34.25;;;;;;;11.66;100.00;101438.50;5137825;27;20276;-44
2022/10/02 05:38:25;;;;;;;80.60;33.15;;;;;;;11.69;100.00;101443.75;5138065;27;20020;-49
2022/10/02 05:41:04;;;;;;;79.03;33.75;;;;;;;11.74;100.00;101442.22;5137024;27;20027;-46
2022/10/02 05:43:43;;;;;;;83.20;33.40;;;;;;;11.77;100.00;101452.66;5137603;27;20537;-45
2022/10/02 05:46:24;;;;;;;91.78;33.85;;;;;;;11.80;100.00;101452.78;5137120;27;20042;-47
2022/10/02 05:49:12;;;;;;;75.13;32.78;;;;;;;11.84;100.00;101449.47;5137813;27;20031;-49
2022/10/02 05:52:09;;;;;;;101.95;34.28;;;;;;;11.88;100.00;101453.03;5137323;27;20580;-49
2022/10/02 05:54:39;;;;;;;87.23;32.27;;;;;;;11.91;100.00;101449.66;5134843;27;20051;-48
2022/10/02 05:57:32;;;;;;;72.82;32.63;;;;;;;11.94;100.00;101457.50;5137487;27;20383;-48
2022/10/02 06:00:03;;;;;;;74.28;32.85;;;;;;;11.95;100.00;101456.69;5136733;27;20031;-50
2022/10/02 06:02:41;;;;;;;93.25;32.50;;;;;;;11.93;100.00;101453.16;5137294;27;20031;-50
2022/10/02 06:05:16;;;;;;;90.30;30.95;;;;;;;11.93;100.00;101445.41;5137600;27;20103;-47
2022/10/02 06:07:46;;;;;;;87.63;30.70;;;;;;;11.93;100.00;101458.34;5136353;27;20016;-49
2022/10/02 06:10:25;;;;;;;75.50;30.63;;;;;;;11.95;100.00;101462.75;5137265;27;20378;-50
2022/10/02 06:12:51;;;;;;;74.45;28.98;;;;;;;11.92;100.00;101462.63;5136910;27;20035;-45
2022/10/02 06:15:31;;;;;;;80.47;29.52;;;;;;;11.93;100.00;101468.66;5136607;27;20463;-49
2022/10/02 06:18:03;;;;;;;76.90;28.42;;;;;;;11.93;100.00;101473.84;5137298;27;20023;-50
2022/10/02 06:20:37;;;;;;;79.53;27.33;;;;;;;11.98;100.00;101488.72;5137220;27;20102;-48
2022/10/02 06:23:15;;;;;;;89.72;28.00;;;;;;;12.02;100.00;101485.41;5136063;27;20485;-49
2022/10/02 06:25:48;;;;;;;82.63;25.30;;;;;;;12.08;100.00;101486.44;5136765;27;20370;-47
2022/10/02 06:28:19;;;;;;;86.10;26.65;;;;;;;12.08;100.00;101486.44;5136239;27;20023;-48
2022/10/02 06:30:53;;;;;;;77.65;23.10;;;;;;;12.12;100.00;101489.19;5136759;27;20038;-47
2022/10/02 06:33:23;;;;;;;66.65;22.95;;;;;;;12.16;100.00;101492.72;5136775;27;20393;-48
2022/10/02 06:36:12;;;;;;;70.28;22.17;;;;;;;12.17;100.00;101484.16;5135646;27;20011;-48
2022/10/02 06:38:53;;;;;;;74.80;23.23;;;;;;;12.19;100.00;101485.09;5136600;27;20053;-46
2022/10/02 06:41:37;;;;;;;68.18;20.52;;;;;;;12.22;100.00;101489.50;5136758;27;20061;-48
2022/10/02 06:44:25;;;;;;;65.68;19.10;;;;;;;12.25;100.00;101489.56;5135671;27;20077;-48
2022/10/02 06:47:31;;;;;;;69.28;19.13;;;;;;;12.28;100.00;101502.63;5136272;27;20451;-48
2022/10/02 06:50:26;;;;;;;68.55;18.10;;;;;;;12.30;100.00;101496.69;5135721;27;20053;-49
2022/10/02 06:52:57;;;;;;;66.53;17.48;;;;;;;12.33;100.00;101501.03;5135968;27;20492;-50
2022/10/02 06:55:53;;;;;;;52.17;15.13;;;;;;;12.37;100.00;101520.13;5136505;27;20031;-49
2022/10/02 06:58:33;;;;;;;59.90;15.25;;;;;;;12.37;100.00;101518.44;5136395;27;20035;-49
2022/10/02 07:01:25;;;;;;;51.67;14.70;;;;;;;12.41;100.00;101522.88;5136311;27;20034;-50
2022/10/02 07:04:32;;;;;;;53.60;14.00;;;;;;;12.43;100.00;101523.78;5134633;27;20047;-50
2022/10/02 07:07:36;;;;;;;55.65;15.48;;;;;;;12.47;100.00;101524.75;5136225;27;20043;-48
2022/10/02 07:10:31;;;;;;;63.03;16.50;;;;;;;12.50;100.00;101523.16;5135471;27;20039;-46
2022/10/02 07:13:02;;;;;;;59.05;17.70;;;;;;;12.54;100.00;101525.81;5135984;27;20023;-49
2022/10/02 07:15:40;;;;;;;57.80;19.77;;;;;;;12.59;100.00;101524.28;5135978;27;20069;-49
2022/10/02 07:18:18;;;;;;;63.15;21.23;;;;;;;12.58;100.00;101518.22;5135270;27;20027;-48
2022/10/02 07:21:11;;;;;;;57.75;21.60;;;;;;;12.62;100.00;101524.38;5135830;27;20046;-47
2022/10/02 07:24:02;;;;;;;50.90;20.02;;;;;;;12.63;100.00;101526.16;5135596;27;20482;-47
2022/10/02 07:26:48;;;;;;;61.63;22.20;;;;;;;12.62;100.00;101534.72;5096465;27;20046;-48
2022/10/02 07:29:25;;;;;;;50.92;21.95;;;;;;;12.62;100.00;101530.44;5135858;27;20427;-49
2022/10/02 07:32:13;;;;;;;49.72;22.33;;;;;;;12.66;100.00;101532.28;5134717;27;20042;-46
2022/10/02 07:35:07;;;;;;;54.95;22.55;;;;;;;12.67;100.00;101531.44;5121702;27;20110;-48
2022/10/02 07:37:49;;;;;;;53.33;23.23;;;;;;;12.69;100.00;101547.00;5135284;27;20448;-46
2022/10/02 07:40:23;;;;;;;55.83;24.45;;;;;;;12.75;100.00;101552.38;5134816;27;20088;-49
2022/10/02 07:43:07;;;;;;;52.97;23.23;;;;;;;12.78;100.00;101552.50;5135190;27;20102;-47
2022/10/02 07:45:42;;;;;;;55.30;23.15;;;;;;;12.81;100.00;101544.81;5134562;27;20043;-46
2022/10/02 07:48:23;;;;;;;61.50;23.92;;;;;;;12.87;100.00;101545.84;5134919;27;20045;-45
2022/10/02 07:54:19;;;;;;;48.50;25.70;;;;;;;13.07;100.00;101543.91;5134455;27;20575;-49
2022/10/02 07:56:47;;;;;;;58.35;28.17;;;;;;;13.22;100.00;101546.06;5135003;27;20031;-50
2022/10/02 07:59:16;;;;;;;52.97;27.63;;;;;;;13.42;100.00;101552.72;5134169;27;20107;-49
2022/10/02 08:01:43;;;;;;;49.85;25.75;;;;;;;13.52;100.00;101558.16;5134979;27;20023;-48
2022/10/02 08:04:26;;;;;;;47.58;24.35;;;;;;;13.61;100.00;101558.47;5135203;27;20034;-49
2022/10/02 08:06:59;;;;;;;47.78;25.20;;;;;;;13.77;100.00;101563.22;5134101;27;20104;-49
2022/10/02 08:09:41;;;;;;;41.50;22.60;;;;;;;13.79;100.00;101569.31;5134935;27;20015;-48
2022/10/02 08:12:27;;;;;;;42.70;20.35;;;;;;;13.75;100.00;101567.50;5135040;27;20052;-48
2022/10/02 08:14:56;;;;;;;37.90;19.40;;;;;;;13.78;100.00;101574.47;5133811;27;20023;-49
2022/10/02 08:17:22;;;;;;;36.95;19.35;;;;;;;13.74;100.00;101570.91;5134730;27;20096;-48
2022/10/02 08:19:50;;;;;;;37.42;17.85;;;;;;;13.75;100.00;101583.03;5134513;27;20039;-49
2022/10/02 08:22:41;;;;;;;40.40;18.70;;;;;;;13.87;100.00;101589.41;5133819;27;20059;-49
2022/10/02 08:25:14;;;;;;;39.58;17.85;;;;;;;13.92;100.00;101588.69;5134864;27;20030;-49
2022/10/02 08:27:54;;;;;;;34.67;16.17;;;;;;;13.98;100.00;101600.91;5133729;27;20036;-49
2022/10/02 08:30:20;;;;;;;38.88;17.27;;;;;;;13.99;100.00;101602.69;5134478;27;20031;-46
2022/10/02 08:32:46;;;;;;;37.25;14.93;;;;;;;14.02;100.00;101601.88;5134024;27;20512;-49
2022/10/02 08:35:18;;;;;;;34.88;14.73;;;;;;;14.10;100.00;101595.19;5133860;27;20027;-49
2022/10/02 08:38:15;;;;;;;30.00;13.27;;;;;;;14.17;100.00;101591.94;5134185;27;20378;-49
2022/10/02 08:40:40;;;;;;;;;;;;;;;14.27;100.00;101603.44;5134710;27;20024;-49
2022/10/02 08:43:37;;;;;;;30.00;14.43;;;;;;;14.23;100.00;101614.53;5133187;27;19919;-50
2022/10/02 08:46:43;;;;;;;32.97;13.95;;;;;;;14.27;100.00;101616.41;5134692;27;20284;-49
2022/10/02 08:49:25;;;;;;;29.88;12.68;;;;;;;14.44;100.00;101615.13;5133403;27;20073;-48
2022/10/02 08:51:57;;;;;;;30.13;12.40;;;;;;;14.42;100.00;101622.00;5133864;27;20539;-49
2022/10/02 08:54:40;;;;;;;29.25;11.85;;;;;;;14.40;100.00;101615.88;5134091;27;20385;-49
2022/10/02 08:57:44;;;;;;;28.80;10.88;;;;;;;14.42;100.00;101619.41;5133331;27;20538;-48
2022/10/02 09:00:33;;;;;;;29.58;11.82;;;;;;;14.52;100.00;101625.69;5132415;27;20099;-48
2022/10/02 09:03:18;;;;;;;28.90;10.23;;;;;;;14.56;100.00;101626.66;5122052;27;20035;-50
2022/10/02 09:06:05;;;;;;;28.65;11.75;;;;;;;14.44;100.00;101633.28;5133787;27;20084;-49
2022/10/02 09:08:51;;;;;;;24.75;11.60;;;;;;;14.49;100.00;101642.06;5134113;27;20104;-44
2022/10/02 09:11:51;;;;;;;28.85;12.07;;;;;;;14.41;100.00;101653.94;5133333;27;20019;-49
2022/10/02 09:14:36;;;;;;;26.60;12.15;;;;;;;14.48;100.00;101649.81;5133814;27;20478;-49
2022/10/02 09:17:01;;;;;;;29.60;10.70;;;;;;;14.46;100.00;101646.28;5132352;28;20081;-48
2022/10/02 09:19:48;;;;;;;37.00;9.97;;;;;;;14.69;100.00;101644.31;5133984;28;20019;-46
2022/10/02 09:22:43;;;;;;;28.02;8.98;;;;;;;15.11;100.00;101646.22;5133834;28;20321;-47
2022/10/02 09:25:23;;;;;;;21.83;7.60;;;;;;;15.60;100.00;101648.19;5133235;28;20039;-48
2022/10/02 09:28:03;;;;;;;24.27;7.15;;;;;;;15.61;100.00;101649.94;5133672;28;20023;-50
2022/10/02 09:30:34;;;;;;;21.88;6.75;;;;;;;15.63;100.00;101648.25;5133890;28;20030;-49
2022/10/02 09:33:29;;;;;;;21.80;6.28;;;;;;;15.73;100.00;101642.38;5132971;28;20062;-48
2022/10/02 09:36:25;;;;;;;23.95;6.05;;;;;;;15.51;100.00;101653.19;5042587;28;20033;-48
2022/10/02 09:39:23;;;;;;;20.08;6.47;;;;;;;15.40;100.00;101660.72;5132620;28;20486;-47
2022/10/02 09:41:51;;;;;;;24.48;5.55;;;;;;;15.40;100.00;101656.41;5133617;28;20051;-47
2022/10/02 09:44:38;;;;;;;25.45;5.47;;;;;;;15.69;100.00;101658.78;5133511;28;20122;-49
2022/10/02 09:47:13;;;;;;;22.95;5.78;;;;;;;15.76;98.24;101659.78;5133096;28;20031;-49
2022/10/02 09:49:59;;;;;;;24.48;5.63;;;;;;;15.59;97.65;101667.22;5133182;28;20039;-50
2022/10/02 09:52:52;;;;;;;20.80;5.35;;;;;;;15.70;99.77;101664.84;5132784;28;20447;-49
2022/10/02 09:55:41;;;;;;;24.20;5.90;;;;;;;15.73;97.64;101670.13;5133617;28;20114;-48
2022/10/02 09:58:44;;;;;;;20.48;5.10;;;;;;;15.76;96.48;101672.75;5133529;28;20056;-49
2022/10/02 10:01:29;;;;;;;27.00;4.95;;;;;;;16.19;96.12;101675.41;5133275;28;20221;-45
2022/10/02 10:04:21;;;;;;;22.63;5.07;;;;;;;16.27;91.03;101679.03;5133274;28;20023;-49
2022/10/02 10:06:54;;;;;;;23.67;5.07;;;;;;;16.82;87.38;101675.69;5132587;28;20031;-50
2022/10/02 10:10:07;;;;;;;23.75;4.88;;;;;;;17.41;87.61;101665.34;5133501;28;20035;-50
2022/10/02 10:13:07;;;;;;;21.70;4.88;;;;;;;17.76;85.63;101678.00;5118609;27;20123;-46
2022/10/02 10:15:55;;;;;;;16.67;4.50;;;;;;;17.60;84.01;101673.44;5137341;27;20023;-50
2022/10/02 10:18:42;;;;;;;20.10;4.15;;;;;;;17.83;84.98;101667.66;5137085;27;20599;-49
2022/10/02 10:21:29;;;;;;;22.73;4.78;;;;;;;18.39;84.95;101674.44;5136500;27;20023;-49
2022/10/02 10:23:55;;;;;;;16.33;4.22;;;;;;;18.72;78.10;101683.44;5137002;27;20027;-48
2022/10/02 10:26:35;;;;;;;22.20;4.47;;;;;;;19.07;77.07;101686.38;5137065;27;20076;-49
2022/10/02 10:29:15;;;;;;;17.60;3.72;;;;;;;19.20;77.79;101689.97;5136129;27;20474;-48
2022/10/02 10:32:09;;;;;;;20.25;3.92;;;;;;;18.94;78.59;101705.44;5136854;27;20023;-49
2022/10/02 10:34:56;;;;;;;31.88;4.68;;;;;;;18.57;77.22;101708.53;5135935;27;20106;-48
2022/10/02 10:41:03;;;;;;;20.60;4.60;;;;;;;18.82;75.94;101718.34;5136813;27;20386;-48
2022/10/02 10:43:59;;;;;;;25.42;4.15;;;;;;;18.21;71.29;101712.50;5136588;27;20138;-49
2022/10/02 10:46:36;;;;;;;18.37;3.83;;;;;;;17.68;75.10;101723.09;5136868;27;20031;-47
2022/10/02 10:49:24;;;;;;;20.25;4.40;;;;;;;17.63;74.96;101723.00;5135912;27;20076;-48
2022/10/02 10:52:06;;;;;;;25.98;3.92;;;;;;;17.23;78.25;101722.41;5136171;27;20023;-48
2022/10/02 10:54:47;;;;;;;21.10;4.47;;;;;;;17.13;78.26;101726.56;5136367;27;20031;-48
2022/10/02 10:57:28;;;;;;;24.92;4.45;;;;;;;17.02;76.40;101723.81;5135548;27;20482;-49
2022/10/02 11:00:25;;;;;;;21.35;4.18;;;;;;;17.15;79.45;101713.59;5136048;27;20466;-48
2022/10/02 11:03:04;;;;;;;;;;;;;;;17.40;78.47;101723.56;5135780;27;20095;-46
2022/10/02 11:05:52;;;;;;;28.98;4.80;;;;;;;17.47;78.21;101723.63;5136528;27;20018;-47
2022/10/02 11:08:35;;;;;;;;;;;;;;;17.67;76.81;101713.50;5136703;27;20157;-50
2022/10/02 11:11:19;;;;;;;21.92;4.53;;;;;;;17.34;75.89;101715.66;5135275;27;20361;-49
2022/10/02 11:13:56;;;;;;;25.52;4.50;;;;;;;17.38;76.33;101720.03;5135786;27;20114;-48
2022/10/02 11:16:49;;;;;;;21.88;3.95;;;;;;;17.48;74.97;101717.56;5135239;27;20500;-49
2022/10/02 11:19:25;;;;;;;19.50;4.32;;;;;;;17.57;75.67;101717.69;5135895;27;20039;-48
2022/10/02 11:22:01;;;;;;;24.95;4.90;;;;;;;17.83;76.07;101720.69;5134860;27;20498;-47
2022/10/02 11:24:54;;;;;;;20.55;3.92;;;;;;;17.80;75.47;101735.41;5135231;27;20028;-48
2022/10/02 11:27:37;;;;;;;24.38;4.82;;;;;;;17.63;76.17;101728.22;5135884;27;20019;-49
2022/10/02 11:30:20;;;;;;;28.95;4.47;;;;;;;17.59;78.26;101734.25;5135708;27;20482;-48
2022/10/02 11:33:23;;;;;;;29.48;4.28;;;;;;;17.36;79.21;101733.91;5135539;27;20110;-49
2022/10/02 11:36:18;;;;;;;20.17;4.20;;;;;;;17.04;81.04;101739.44;5135429;27;20355;-49
2022/10/02 11:38:53;;;;;;;26.25;4.63;;;;;;;16.72;82.34;101742.31;5134779;27;20027;-49
2022/10/02 11:41:31;;;;;;;24.73;4.80;;;;;;;16.50;83.07;101743.63;5135654;27;20030;-48
2022/10/02 11:44:23;;;;;;;24.98;4.97;;;;;;;16.30;84.01;101750.19;5135425;27;20043;-48
2022/10/02 11:47:11;;;;;;;21.67;4.43;;;;;;;15.96;86.30;101752.09;5135378;27;20019;-49
2022/10/02 11:50:00;;;;;;;22.77;4.72;;;;;;;15.66;89.13;101760.06;5135051;27;20500;-49
2022/10/02 11:52:35;;;;;;;26.33;4.63;;;;;;;15.40;88.88;101757.72;5134380;27;20041;-47
2022/10/02 11:55:12;;;;;;;22.70;5.00;;;;;;;15.30;92.01;101758.34;5135451;27;20027;-48
2022/10/02 11:57:51;;;;;;;34.35;6.50;;;;;;;15.28;92.28;101758.28;5135032;27;20378;-47
2022/10/02 12:00:44;;;;;;;26.13;5.30;;;;;;;15.36;93.05;101747.22;5134555;27;20030;-48
2022/10/02 12:03:23;;;;;;;22.38;5.05;;;;;;;15.30;92.52;101746.22;5135111;27;20501;-46
2022/10/02 12:06:15;;;;;;;29.58;6.80;;;;;;;15.43;92.15;101756.91;5134171;27;20076;-48
2022/10/02 12:08:57;;;;;;;28.20;5.13;;;;;;;15.76;92.01;101754.22;5134782;27;20084;-48
2022/10/02 12:11:32;;;;;;;22.08;5.30;;;;;;;16.59;88.20;101754.22;5134904;27;20088;-48